Time;durP1;ratioP1;P1;durP2;ratioP2;P2;SDS_P1;SDS_P2;PMS_P1;PMS_P2;Temp;Humidity;BMP_temperature;BMP_pressure;BME280_temperature;BME280_humidity;BME280_pressure;Samples;Min_cycle;Max_cycle;Signal;HPM_P1;HPM_P2
2021/09/06 00:00:48;;;;;;;24.48;10.25;;;;;;;;;;5075007;28;20024;-72
2021/09/06 00:03:14;;;;;;;17.38;10.05;;;;;;;;;;5074489;28;20547;-71
2021/09/06 00:05:40;;;;;;;24.58;10.52;;;;;;;;;;5074915;28;20119;-71
2021/09/06 00:08:06;;;;;;;17.38;10.35;;;;;;;;;;5074759;28;20017;-70
2021/09/06 00:10:36;;;;;;;21.42;10.57;;;;;;;;;;5074514;28;20071;-71
2021/09/06 00:13:03;;;;;;;17.38;9.88;;;;;;;;;;5074621;28;20499;-71
2021/09/06 00:15:29;;;;;;;19.90;10.35;;;;;;;;;;5074521;28;20028;-71
2021/09/06 00:17:55;;;;;;;17.50;10.90;;;;;;;;;;5074774;28;20048;-71
2021/09/06 00:20:21;;;;;;;19.92;9.73;;;;;;;;;;5074277;28;20411;-70
2021/09/06 00:22:48;;;;;;;17.90;10.95;;;;;;;;;;5074116;28;20044;-71
2021/09/06 00:25:14;;;;;;;25.73;10.20;;;;;;;;;;5074209;28;20031;-71
2021/09/06 00:27:40;;;;;;;19.92;10.25;;;;;;;;;;5062687;28;20033;-72
2021/09/06 00:30:06;;;;;;;18.80;10.95;;;;;;;;;;5054369;28;20035;-72
2021/09/06 00:32:32;;;;;;;17.88;10.93;;;;;;;;;;5054333;28;20059;-72
2021/09/06 00:34:58;;;;;;;16.30;11.13;;;;;;;;;;5054072;28;20453;-73
2021/09/06 00:37:24;;;;;;;17.92;10.93;;;;;;;;;;5036350;28;20036;-72
2021/09/06 00:39:50;;;;;;;23.33;10.32;;;;;;;;;;5054041;28;20029;-72
2021/09/06 00:42:16;;;;;;;15.32;10.00;;;;;;;;;;5054054;28;20025;-73
2021/09/06 00:44:42;;;;;;;21.67;10.65;;;;;;;;;;5053896;28;20067;-72
2021/09/06 00:47:08;;;;;;;17.88;8.88;;;;;;;;;;5065836;28;20073;-72
2021/09/06 00:49:34;;;;;;;17.08;8.88;;;;;;;;;;5073029;28;20104;-72
2021/09/06 00:52:00;;;;;;;12.65;9.10;;;;;;;;;;5073711;28;20095;-73
2021/09/06 00:54:26;;;;;;;15.25;10.10;;;;;;;;;;5055690;28;20491;-73
2021/09/06 00:56:53;;;;;;;19.15;10.23;;;;;;;;;;5073771;28;20021;-73
2021/09/06 00:59:19;;;;;;;26.13;10.30;;;;;;;;;;5055468;28;20024;-73
2021/09/06 01:01:45;;;;;;;16.60;9.68;;;;;;;;;;5055857;28;20126;-73
2021/09/06 01:04:11;;;;;;;17.25;10.57;;;;;;;;;;5055710;28;20119;-71
2021/09/06 01:06:37;;;;;;;18.30;10.07;;;;;;;;;;5073847;28;20115;-71
2021/09/06 01:09:03;;;;;;;15.45;10.00;;;;;;;;;;5073407;28;20087;-71
2021/09/06 01:11:29;;;;;;;15.88;9.40;;;;;;;;;;5055603;28;20051;-72
2021/09/06 01:13:55;;;;;;;23.08;9.70;;;;;;;;;;5073390;28;20036;-72
2021/09/06 01:16:22;;;;;;;16.60;10.30;;;;;;;;;;5073402;28;20020;-74
2021/09/06 01:18:48;;;;;;;17.25;10.85;;;;;;;;;;5055482;28;20388;-72
2021/09/06 01:21:15;;;;;;;12.77;9.30;;;;;;;;;;5073198;28;20104;-73
2021/09/06 01:23:41;;;;;;;16.35;8.80;;;;;;;;;;5054513;28;20045;-73
2021/09/06 01:26:07;;;;;;;14.43;9.40;;;;;;;;;;5053500;28;20020;-73
2021/09/06 01:28:34;;;;;;;19.75;10.13;;;;;;;;;;5035532;28;20120;-73
2021/09/06 01:31:00;;;;;;;19.55;11.10;;;;;;;;;;5053101;28;20017;-73
2021/09/06 01:33:26;;;;;;;19.15;11.02;;;;;;;;;;5035209;28;20037;-72
2021/09/06 01:35:52;;;;;;;22.77;11.55;;;;;;;;;;5053163;28;20047;-73
2021/09/06 01:38:18;;;;;;;21.75;11.63;;;;;;;;;;5035206;28;20630;-73
2021/09/06 01:40:44;;;;;;;18.05;11.50;;;;;;;;;;5053056;28;20032;-73
2021/09/06 01:43:10;;;;;;;18.15;12.00;;;;;;;;;;5053043;28;20057;-73
2021/09/06 01:45:36;;;;;;;19.65;11.80;;;;;;;;;;5052936;28;20025;-73
2021/09/06 01:48:02;;;;;;;25.38;12.25;;;;;;;;;;5035319;28;20362;-73
2021/09/06 01:50:28;;;;;;;17.48;11.60;;;;;;;;;;5052905;28;20025;-73
2021/09/06 01:52:54;;;;;;;19.50;11.73;;;;;;;;;;5034962;28;20407;-73
2021/09/06 01:55:20;;;;;;;16.52;10.98;;;;;;;;;;5015529;28;20492;-72
2021/09/06 01:57:46;;;;;;;15.65;10.80;;;;;;;;;;5025911;28;20029;-73
2021/09/06 02:00:12;;;;;;;20.13;10.88;;;;;;;;;;5053683;28;20083;-71
2021/09/06 02:02:38;;;;;;;16.98;9.45;;;;;;;;;;5056840;28;20056;-71
2021/09/06 02:05:04;;;;;;;15.57;8.68;;;;;;;;;;5058161;28;20151;-72
2021/09/06 02:07:30;;;;;;;13.23;7.93;;;;;;;;;;5057083;28;20029;-72
2021/09/06 02:09:56;;;;;;;13.15;7.65;;;;;;;;;;5056862;28;20017;-72
2021/09/06 02:12:22;;;;;;;8.55;6.70;;;;;;;;;;5056629;28;20068;-73
2021/09/06 02:14:48;;;;;;;14.30;6.53;;;;;;;;;;5039011;28;20045;-72
2021/09/06 02:17:14;;;;;;;12.90;7.20;;;;;;;;;;5057077;28;20024;-73
2021/09/06 02:19:40;;;;;;;11.40;6.78;;;;;;;;;;5038747;28;20037;-74
2021/09/06 02:22:06;;;;;;;14.85;8.18;;;;;;;;;;5023908;28;20040;-73
2021/09/06 02:24:32;;;;;;;12.45;7.32;;;;;;;;;;5036735;28;20017;-73
2021/09/06 02:26:58;;;;;;;15.57;6.13;;;;;;;;;;5036609;28;20377;-73
2021/09/06 02:29:24;;;;;;;8.77;6.43;;;;;;;;;;5018652;28;20079;-72
2021/09/06 02:31:50;;;;;;;15.43;7.75;;;;;;;;;;5036595;28;20513;-72
2021/09/06 02:34:16;;;;;;;11.90;7.63;;;;;;;;;;5036486;28;20037;-75
2021/09/06 02:36:42;;;;;;;18.20;8.75;;;;;;;;;;5036522;28;20025;-74
2021/09/06 02:39:08;;;;;;;11.82;7.68;;;;;;;;;;5036327;28;20502;-74
2021/09/06 02:41:34;;;;;;;14.07;6.22;;;;;;;;;;5018802;28;20022;-74
2021/09/06 02:44:00;;;;;;;15.43;8.00;;;;;;;;;;5036292;28;20025;-73
2021/09/06 02:46:26;;;;;;;14.93;8.88;;;;;;;;;;5042089;28;20362;-74
2021/09/06 02:48:52;;;;;;;46.63;9.75;;;;;;;;;;5056043;28;20116;-72
2021/09/06 02:51:18;;;;;;;28.58;8.85;;;;;;;;;;5056212;28;20096;-72
2021/09/06 02:53:44;;;;;;;13.02;8.38;;;;;;;;;;5038029;28;20033;-73
2021/09/06 02:56:10;;;;;;;13.27;8.77;;;;;;;;;;5056030;28;20090;-72
2021/09/06 02:58:36;;;;;;;11.10;7.05;;;;;;;;;;5038263;28;20111;-72
2021/09/06 03:01:02;;;;;;;9.75;6.85;;;;;;;;;;5056031;28;20024;-72
2021/09/06 03:03:28;;;;;;;12.07;7.07;;;;;;;;;;5038148;28;20028;-72
2021/09/06 03:05:54;;;;;;;12.05;7.30;;;;;;;;;;5038068;28;20105;-73
2021/09/06 03:08:20;;;;;;;13.75;8.75;;;;;;;;;;5055845;28;20025;-72
2021/09/06 03:10:46;;;;;;;17.05;10.23;;;;;;;;;;5055629;28;20131;-73
2021/09/06 03:13:12;;;;;;;20.67;9.73;;;;;;;;;;5054623;28;20028;-73
2021/09/06 03:15:40;;;;;;;15.85;9.23;;;;;;;;;;5055726;28;20051;-72
2021/09/06 03:18:06;;;;;;;12.45;9.20;;;;;;;;;;5055402;28;20029;-73
2021/09/06 03:20:32;;;;;;;16.33;9.77;;;;;;;;;;5055388;28;20090;-73
2021/09/06 03:22:58;;;;;;;12.65;8.68;;;;;;;;;;5067998;28;20095;-73
2021/09/06 03:25:24;;;;;;;17.23;8.57;;;;;;;;;;5075709;28;20024;-72
2021/09/06 03:27:50;;;;;;;12.80;8.18;;;;;;;;;;5075477;28;20067;-73
2021/09/06 03:30:16;;;;;;;11.88;7.50;;;;;;;;;;5057485;28;20052;-72
2021/09/06 03:32:42;;;;;;;11.80;7.72;;;;;;;;;;5075549;28;20025;-73
2021/09/06 03:35:11;;;;;;;13.43;8.88;;;;;;;;;;5075335;28;20422;-73
2021/09/06 03:37:37;;;;;;;13.82;9.30;;;;;;;;;;5072744;28;20020;-73
2021/09/06 03:40:03;;;;;;;13.82;9.20;;;;;;;;;;5074099;28;20031;-73
2021/09/06 03:42:29;;;;;;;22.67;6.63;;;;;;;;;;5075281;28;20096;-74
2021/09/06 03:44:55;;;;;;;13.43;7.88;;;;;;;;;;5074867;28;20353;-72
2021/09/06 03:47:21;;;;;;;23.02;9.18;;;;;;;;;;5073916;28;20174;-73
2021/09/06 03:49:47;;;;;;;33.25;9.43;;;;;;;;;;5075178;28;20476;-73
2021/09/06 03:52:13;;;;;;;16.33;7.22;;;;;;;;;;5075035;28;20184;-72
2021/09/06 03:54:39;;;;;;;19.80;6.25;;;;;;;;;;5074789;28;20029;-73
2021/09/06 03:57:05;;;;;;;12.93;7.88;;;;;;;;;;5074999;28;20063;-72
2021/09/06 03:59:31;;;;;;;15.68;6.43;;;;;;;;;;5073350;28;20051;-72
2021/09/06 04:01:57;;;;;;;10.55;5.93;;;;;;;;;;5075027;28;20379;-72
2021/09/06 04:04:23;;;;;;;12.73;7.43;;;;;;;;;;5074642;28;20024;-73
2021/09/06 04:06:49;;;;;;;13.27;7.80;;;;;;;;;;5074684;28;20031;-73
2021/09/06 04:09:15;;;;;;;13.95;6.88;;;;;;;;;;5073343;28;20024;-73
2021/09/06 04:11:41;;;;;;;9.55;5.03;;;;;;;;;;5060305;28;20035;-72
2021/09/06 04:14:07;;;;;;;11.07;7.78;;;;;;;;;;5056439;28;20361;-73
2021/09/06 04:16:33;;;;;;;12.05;7.53;;;;;;;;;;5074499;28;20476;-72
2021/09/06 04:18:59;;;;;;;12.98;7.07;;;;;;;;;;5074517;28;20029;-74
2021/09/06 04:21:25;;;;;;;17.50;7.00;;;;;;;;;;5074378;28;20369;-73
2021/09/06 04:23:51;;;;;;;12.27;7.63;;;;;;;;;;5073947;28;20044;-73
2021/09/06 04:26:17;;;;;;;13.80;7.30;;;;;;;;;;5074347;28;20104;-72
2021/09/06 04:28:43;;;;;;;13.98;8.23;;;;;;;;;;5074218;28;20040;-73
2021/09/06 04:31:13;;;;;;;11.48;8.30;;;;;;;;;;5056155;28;20020;-73
2021/09/06 04:33:44;;;;;;;17.90;9.07;;;;;;;;;;5056138;28;20056;-73
2021/09/06 04:36:10;;;;;;;19.08;9.10;;;;;;;;;;5073916;28;20070;-71
2021/09/06 04:38:36;;;;;;;12.90;9.07;;;;;;;;;;5072949;28;20068;-72
2021/09/06 04:41:02;;;;;;;18.00;7.85;;;;;;;;;;5056082;28;20388;-71
2021/09/06 04:43:28;;;;;;;10.70;7.20;;;;;;;;;;5074072;28;20025;-72
2021/09/06 04:45:54;;;;;;;9.10;6.65;;;;;;;;;;5073898;28;20439;-71
2021/09/06 04:48:20;;;;;;;8.77;5.35;;;;;;;;;;5055862;28;20024;-72
2021/09/06 04:50:46;;;;;;;8.27;5.38;;;;;;;;;;5073839;28;20028;-71
2021/09/06 04:53:12;;;;;;;8.55;5.38;;;;;;;;;;5073644;28;20024;-72
2021/09/06 04:55:39;;;;;;;13.85;8.82;;;;;;;;;;5073649;28;20033;-72
2021/09/06 04:58:05;;;;;;;14.85;8.88;;;;;;;;;;5055820;28;20031;-71
2021/09/06 05:00:31;;;;;;;11.52;8.35;;;;;;;;;;5073710;28;20090;-72
2021/09/06 05:02:57;;;;;;;10.23;7.60;;;;;;;;;;5055544;28;20376;-72
2021/09/06 05:05:23;;;;;;;13.90;9.18;;;;;;;;;;5073633;28;20059;-72
2021/09/06 05:07:49;;;;;;;11.50;8.23;;;;;;;;;;5073651;28;20602;-72
2021/09/06 05:10:15;;;;;;;12.10;8.63;;;;;;;;;;5073542;28;20095;-72
2021/09/06 05:12:41;;;;;;;15.25;7.80;;;;;;;;;;5055648;28;20506;-72
2021/09/06 05:15:07;;;;;;;16.63;7.80;;;;;;;;;;5055553;28;20037;-72
2021/09/06 05:17:33;;;;;;;14.90;8.23;;;;;;;;;;5073397;28;20029;-72
2021/09/06 05:19:59;;;;;;;14.52;8.77;;;;;;;;;;5073223;28;20035;-72
2021/09/06 05:22:25;;;;;;;12.77;8.13;;;;;;;;;;5073476;28;20127;-71
2021/09/06 05:24:54;;;;;;;17.90;9.35;;;;;;;;;;5073465;28;20033;-73
2021/09/06 05:27:21;;;;;;;12.23;8.32;;;;;;;;;;5073333;28;20067;-73
2021/09/06 05:29:47;;;;;;;17.90;8.63;;;;;;;;;;5073233;28;20376;-72
2021/09/06 05:32:13;;;;;;;13.13;8.82;;;;;;;;;;5073232;28;20028;-72
2021/09/06 05:34:39;;;;;;;13.48;8.68;;;;;;;;;;5072646;28;20037;-72
2021/09/06 05:37:05;;;;;;;14.88;9.75;;;;;;;;;;5073019;28;20025;-72
2021/09/06 05:39:30;;;;;;;14.35;9.60;;;;;;;;;;5073409;28;20028;-72
2021/09/06 05:41:56;;;;;;;9.48;7.43;;;;;;;;;;5073264;28;20017;-72
2021/09/06 05:44:22;;;;;;;11.32;7.10;;;;;;;;;;5073251;28;20468;-72
2021/09/06 05:46:48;;;;;;;12.23;7.60;;;;;;;;;;5073142;28;20073;-72
2021/09/06 05:49:15;;;;;;;7.78;6.53;;;;;;;;;;5073204;28;20021;-72
2021/09/06 05:51:41;;;;;;;15.60;7.22;;;;;;;;;;5064437;28;20028;-72
2021/09/06 05:54:07;;;;;;;11.02;7.88;;;;;;;;;;5035099;28;20040;-72
2021/09/06 05:56:32;;;;;;;13.63;9.07;;;;;;;;;;5053059;28;20025;-72
2021/09/06 05:58:58;;;;;;;12.27;9.05;;;;;;;;;;5052853;28;20057;-72
2021/09/06 06:01:24;;;;;;;16.08;9.68;;;;;;;;;;5053034;28;20098;-71
2021/09/06 06:03:50;;;;;;;16.83;11.68;;;;;;;;;;5035156;28;20020;-71
2021/09/06 06:06:18;;;;;;;14.68;9.65;;;;;;;;;;5052865;28;20033;-71
2021/09/06 06:08:44;;;;;;;15.05;8.70;;;;;;;;;;5035074;28;20021;-71
2021/09/06 06:11:10;;;;;;;16.10;10.52;;;;;;;;;;5052951;28;20028;-72
2021/09/06 06:13:36;;;;;;;14.48;10.23;;;;;;;;;;5052723;28;20025;-72
2021/09/06 06:16:02;;;;;;;16.50;10.43;;;;;;;;;;5052658;28;20032;-72
2021/09/06 06:18:28;;;;;;;13.75;9.98;;;;;;;;;;5060274;28;20448;-72
2021/09/06 06:20:54;;;;;;;17.40;10.35;;;;;;;;;;5072805;28;20033;-72
2021/09/06 06:23:20;;;;;;;15.75;9.95;;;;;;;;;;5071795;28;20562;-72
2021/09/06 06:25:46;;;;;;;18.73;12.02;;;;;;;;;;5072935;28;20028;-74
2021/09/06 06:28:12;;;;;;;18.33;11.10;;;;;;;;;;5054723;28;20032;-72
2021/09/06 06:30:38;;;;;;;18.63;11.02;;;;;;;;;;5054605;28;20050;-72
2021/09/06 06:33:04;;;;;;;29.95;9.57;;;;;;;;;;5054709;28;20028;-72
2021/09/06 06:35:30;;;;;;;26.52;11.60;;;;;;;;;;5072580;28;20494;-70
2021/09/06 06:37:56;;;;;;;31.55;5.80;;;;;;;;;;5072754;28;20016;-70
2021/09/06 06:40:22;;;;;;;30.60;7.53;;;;;;;;;;5054298;28;20442;-71
2021/09/06 06:42:48;;;;;;;40.55;7.57;;;;;;;;;;5072766;28;20063;-70
2021/09/06 06:45:14;;;;;;;40.08;8.98;;;;;;;;;;5072628;28;20032;-69
2021/09/06 06:47:40;;;;;;;27.40;7.18;;;;;;;;;;5057626;28;20020;-70
2021/09/06 06:50:06;;;;;;;28.88;6.85;;;;;;;;;;5076219;28;20024;-70
2021/09/06 06:52:32;;;;;;;42.85;6.97;;;;;;;;;;5076192;28;20446;-69
2021/09/06 06:54:58;;;;;;;36.15;7.97;;;;;;;;;;5075406;28;20025;-70
2021/09/06 06:57:24;;;;;;;33.13;7.43;;;;;;;;;;5075465;28;20040;-70
2021/09/06 06:59:50;;;;;;;22.05;7.18;;;;;;;;;;5057425;28;20029;-71
2021/09/06 07:02:16;;;;;;;18.30;6.97;;;;;;;;;;5075637;28;20476;-69
2021/09/06 07:04:42;;;;;;;39.33;9.02;;;;;;;;;;5075793;28;20032;-75
2021/09/06 07:07:08;;;;;;;34.28;10.80;;;;;;;;;;5058014;28;20052;-73
2021/09/06 07:09:34;;;;;;;29.85;12.88;;;;;;;;;;5075868;28;20036;-72
2021/09/06 07:12:00;;;;;;;32.83;12.30;;;;;;;;;;5075926;28;20023;-68
2021/09/06 07:14:26;;;;;;;28.88;12.52;;;;;;;;;;5075730;28;20037;-69
2021/09/06 07:16:52;;;;;;;20.60;13.13;;;;;;;;;;5075520;28;20487;-68
2021/09/06 07:19:18;;;;;;;27.30;12.52;;;;;;;;;;5075658;28;20029;-68
2021/09/06 07:21:44;;;;;;;28.42;12.82;;;;;;;;;;5075060;28;20052;-68
2021/09/06 07:24:10;;;;;;;21.30;11.75;;;;;;;;;;5057823;28;20040;-68
2021/09/06 07:26:36;;;;;;;21.63;13.43;;;;;;;;;;5075881;28;20024;-68
2021/09/06 07:29:02;;;;;;;22.48;11.65;;;;;;;;;;5075631;28;20400;-69
2021/09/06 07:31:28;;;;;;;19.27;13.23;;;;;;;;;;5057254;28;20060;-68
2021/09/06 07:33:54;;;;;;;22.95;11.73;;;;;;;;;;5057611;28;20064;-68
2021/09/06 07:36:20;;;;;;;26.70;12.25;;;;;;;;;;5075099;28;20048;-68
2021/09/06 07:38:46;;;;;;;23.55;14.13;;;;;;;;;;5057408;28;20085;-68
2021/09/06 07:41:12;;;;;;;26.73;10.93;;;;;;;;;;5075228;28;20475;-68
2021/09/06 07:43:38;;;;;;;20.08;11.15;;;;;;;;;;5075436;28;20031;-68
2021/09/06 07:46:04;;;;;;;18.80;10.75;;;;;;;;;;5057074;28;20107;-68
2021/09/06 07:48:30;;;;;;;19.45;11.77;;;;;;;;;;5075158;28;20445;-67
2021/09/06 07:50:56;;;;;;;27.38;15.77;;;;;;;;;;5074826;28;20089;-69
2021/09/06 07:53:23;;;;;;;25.13;14.88;;;;;;;;;;5074697;28;20028;-68
2021/09/06 07:55:49;;;;;;;26.42;12.95;;;;;;;;;;5075098;28;20414;-68
2021/09/06 07:58:15;;;;;;;23.83;14.45;;;;;;;;;;5074291;28;20416;-68
2021/09/06 08:00:41;;;;;;;23.17;12.27;;;;;;;;;;5075034;28;20052;-68
2021/09/06 08:03:07;;;;;;;27.35;15.80;;;;;;;;;;5057253;28;20056;-68
2021/09/06 08:05:33;;;;;;;26.10;13.50;;;;;;;;;;5074844;28;20468;-68
2021/09/06 08:07:59;;;;;;;21.50;13.57;;;;;;;;;;5056689;28;20056;-68
2021/09/06 08:10:25;;;;;;;27.52;14.88;;;;;;;;;;5056691;28;20048;-69
2021/09/06 08:12:51;;;;;;;21.08;13.55;;;;;;;;;;5074358;28;20491;-68
2021/09/06 08:15:18;;;;;;;25.85;12.90;;;;;;;;;;5074712;28;20064;-68
2021/09/06 08:17:44;;;;;;;24.55;14.48;;;;;;;;;;5056504;28;20115;-68
2021/09/06 08:20:11;;;;;;;25.08;14.13;;;;;;;;;;5074455;28;20107;-68
2021/09/06 08:22:38;;;;;;;37.30;12.35;;;;;;;;;;5074272;28;20419;-68
2021/09/06 08:25:05;;;;;;;19.10;12.27;;;;;;;;;;5074379;28;20028;-68
2021/09/06 08:27:31;;;;;;;24.40;10.52;;;;;;;;;;5074205;28;20032;-68
2021/09/06 08:29:57;;;;;;;17.85;11.05;;;;;;;;;;5073973;28;20028;-68
2021/09/06 08:32:23;;;;;;;18.90;12.05;;;;;;;;;;5074465;28;20480;-68
2021/09/06 08:34:49;;;;;;;22.80;11.63;;;;;;;;;;5056484;28;20369;-68
2021/09/06 08:37:22;;;;;;;15.57;10.20;;;;;;;;;;5073879;28;20464;-69
2021/09/06 08:39:49;;;;;;;20.38;11.07;;;;;;;;;;5074029;28;20029;-68
2021/09/06 08:42:15;;;;;;;20.13;11.25;;;;;;;;;;5074329;28;20810;-69
2021/09/06 08:44:44;;;;;;;20.40;10.35;;;;;;;;;;5055936;28;20039;-68
2021/09/06 08:47:12;;;;;;;16.85;11.88;;;;;;;;;;5074060;28;20095;-68
2021/09/06 08:49:38;;;;;;;20.17;11.77;;;;;;;;;;5055927;28;20056;-69
2021/09/06 08:52:04;;;;;;;28.92;16.13;;;;;;;;;;5073849;28;20025;-68
2021/09/06 08:54:30;;;;;;;20.63;12.05;;;;;;;;;;5073682;28;20495;-68
2021/09/06 08:56:56;;;;;;;41.30;18.40;;;;;;;;;;5073617;28;20051;-68
2021/09/06 08:59:22;;;;;;;27.20;15.60;;;;;;;;;;5073503;28;20534;-69
2021/09/06 09:01:50;;;;;;;27.58;15.27;;;;;;;;;;5073595;28;20024;-68
2021/09/06 09:04:21;;;;;;;31.92;17.10;;;;;;;;;;5055769;28;20029;-69
2021/09/06 09:06:47;;;;;;;27.65;16.83;;;;;;;;;;5055353;28;20032;-69
2021/09/06 09:09:21;;;;;;;39.15;17.00;;;;;;;;;;5073111;28;20639;-68
2021/09/06 09:12:05;;;;;;;25.00;16.73;;;;;;;;;;5073324;28;20024;-68
2021/09/06 09:14:32;;;;;;;30.52;19.58;;;;;;;;;;5073553;28;20043;-68
2021/09/06 09:16:58;;;;;;;33.10;20.10;;;;;;;;;;5055450;28;20111;-69
2021/09/06 09:19:24;;;;;;;31.08;18.58;;;;;;;;;;5073437;28;20024;-70
2021/09/06 09:21:57;;;;;;;29.83;18.83;;;;;;;;;;5070299;28;20095;-69
2021/09/06 09:24:23;;;;;;;35.72;18.48;;;;;;;;;;5053678;28;20037;-69
2021/09/06 09:27:00;;;;;;;31.75;18.73;;;;;;;;;;5035448;28;20029;-68
2021/09/06 09:29:26;;;;;;;47.55;19.42;;;;;;;;;;5035481;28;20082;-70
2021/09/06 09:31:53;;;;;;;46.50;19.80;;;;;;;;;;5053231;28;20519;-68
2021/09/06 09:34:19;;;;;;;33.05;17.45;;;;;;;;;;5053286;28;20025;-69
2021/09/06 09:36:45;;;;;;;33.80;18.55;;;;;;;;;;5053407;28;20387;-68
2021/09/06 09:39:18;;;;;;;31.92;17.00;;;;;;;;;;5053164;28;20492;-69
2021/09/06 09:41:46;;;;;;;29.50;17.33;;;;;;;;;;5053104;28;20032;-68
2021/09/06 09:44:12;;;;;;;43.33;18.73;;;;;;;;;;5053212;28;20050;-68
2021/09/06 09:46:38;;;;;;;45.03;18.85;;;;;;;;;;5052919;28;20061;-68
2021/09/06 09:49:11;;;;;;;46.30;15.95;;;;;;;;;;5053134;28;20027;-68
2021/09/06 09:51:37;;;;;;;33.33;16.80;;;;;;;;;;5052738;28;20484;-69
2021/09/06 09:54:05;;;;;;;27.73;15.82;;;;;;;;;;5035157;28;20033;-69
2021/09/06 09:56:31;;;;;;;30.60;15.90;;;;;;;;;;5053444;28;20584;-68
2021/09/06 09:58:59;;;;;;;25.52;14.75;;;;;;;;;;5052932;28;20032;-69
2021/09/06 10:01:25;;;;;;;26.25;13.95;;;;;;;;;;5052762;28;20472;-68
2021/09/06 10:03:53;;;;;;;32.28;15.23;;;;;;;;;;5052886;28;20461;-68
2021/09/06 10:06:19;;;;;;;51.53;15.15;;;;;;;;;;5053131;28;20108;-69
2021/09/06 10:08:45;;;;;;;26.88;12.80;;;;;;;;;;5052784;28;20498;-68
2021/09/06 10:11:12;;;;;;;25.13;13.85;;;;;;;;;;5034962;28;20029;-69
2021/09/06 10:13:41;;;;;;;23.10;12.95;;;;;;;;;;5052792;28;20480;-69
2021/09/06 10:16:07;;;;;;;21.73;12.98;;;;;;;;;;5052651;28;20036;-69
2021/09/06 10:18:40;;;;;;;18.98;11.63;;;;;;;;;;5052939;28;20021;-66
2021/09/06 10:21:13;;;;;;;23.02;11.57;;;;;;;;;;5035435;28;20021;-69
2021/09/06 10:23:51;;;;;;;18.73;10.50;;;;;;;;;;5074501;28;20098;-70
2021/09/06 10:26:17;;;;;;;22.00;12.05;;;;;;;;;;5055557;28;20025;-71
2021/09/06 10:28:43;;;;;;;17.83;10.70;;;;;;;;;;5064054;28;20111;-71
2021/09/06 10:31:20;;;;;;;20.15;11.35;;;;;;;;;;5076596;28;20021;-70
2021/09/06 10:33:56;;;;;;;20.35;10.82;;;;;;;;;;5062515;28;20031;-70
2021/09/06 10:36:21;;;;;;;23.40;11.93;;;;;;;;;;5076152;28;20039;-69
2021/09/06 10:38:47;;;;;;;16.80;9.93;;;;;;;;;;5076198;28;20021;-70
2021/09/06 10:41:15;;;;;;;17.27;9.95;;;;;;;;;;5076374;28;20078;-69
2021/09/06 10:43:42;;;;;;;24.92;11.90;;;;;;;;;;5076036;28;20480;-69
2021/09/06 10:46:08;;;;;;;18.75;11.00;;;;;;;;;;5076254;28;20020;-70
2021/09/06 10:48:35;;;;;;;25.77;12.27;;;;;;;;;;5076475;28;20541;-70
2021/09/06 10:51:03;;;;;;;18.38;10.90;;;;;;;;;;5076228;28;20495;-68
2021/09/06 10:53:29;;;;;;;21.50;9.98;;;;;;;;;;5075847;28;20078;-68
2021/09/06 10:55:56;;;;;;;18.50;9.85;;;;;;;;;;5075892;28;20428;-69
2021/09/06 10:58:24;;;;;;;18.65;10.20;;;;;;;;;;5075777;28;20051;-69
2021/09/06 11:00:51;;;;;;;16.25;10.57;;;;;;;;;;5076037;28;20028;-69
2021/09/06 11:03:17;;;;;;;18.50;10.63;;;;;;;;;;5075866;28;20016;-69
2021/09/06 11:05:56;;;;;;;22.15;10.50;;;;;;;;;;5057915;28;20530;-69
2021/09/06 11:08:27;;;;;;;14.77;9.25;;;;;;;;;;5057535;28;20035;-69
2021/09/06 11:10:54;;;;;;;17.02;10.25;;;;;;;;;;5062141;28;20025;-68
2021/09/06 11:13:20;;;;;;;21.20;9.68;;;;;;;;;;5055551;28;20025;-69
2021/09/06 11:15:46;;;;;;;18.45;10.52;;;;;;;;;;5055915;28;20032;-68
2021/09/06 11:18:12;;;;;;;22.80;10.25;;;;;;;;;;5055769;28;20021;-69
2021/09/06 11:20:38;;;;;;;17.25;9.70;;;;;;;;;;5055611;28;20029;-69
2021/09/06 11:23:08;;;;;;;15.45;9.32;;;;;;;;;;5055261;28;20045;-69
2021/09/06 11:25:36;;;;;;;18.02;10.50;;;;;;;;;;5055650;28;20056;-69
2021/09/06 11:28:06;;;;;;;16.80;9.63;;;;;;;;;;5064949;28;20028;-69
2021/09/06 11:30:34;;;;;;;16.52;9.98;;;;;;;;;;5075531;28;20027;-69
2021/09/06 11:33:02;;;;;;;12.75;8.77;;;;;;;;;;5074323;28;20536;-69
2021/09/06 11:35:29;;;;;;;18.63;9.75;;;;;;;;;;5075338;28;20043;-69
2021/09/06 11:37:57;;;;;;;23.15;9.88;;;;;;;;;;5075318;28;20025;-69
2021/09/06 11:40:23;;;;;;;18.92;9.63;;;;;;;;;;5075192;28;20056;-69
2021/09/06 11:42:49;;;;;;;20.15;9.55;;;;;;;;;;5074889;28;20059;-69
2021/09/06 11:45:18;;;;;;;21.45;11.18;;;;;;;;;;5057133;28;20036;-70
2021/09/06 11:47:44;;;;;;;15.82;9.15;;;;;;;;;;5074859;28;20468;-68
2021/09/06 11:50:11;;;;;;;21.35;12.18;;;;;;;;;;5074866;28;20026;-68
2021/09/06 11:52:39;;;;;;;16.60;10.18;;;;;;;;;;5075183;28;20377;-69
2021/09/06 11:55:10;;;;;;;19.48;11.68;;;;;;;;;;5074711;28;20127;-68
2021/09/06 11:57:36;;;;;;;15.85;9.85;;;;;;;;;;5074907;28;20024;-69
2021/09/06 12:00:03;;;;;;;23.35;10.90;;;;;;;;;;5074802;28;20025;-69
2021/09/06 12:02:29;;;;;;;18.95;10.75;;;;;;;;;;5074650;28;20021;-68
2021/09/06 12:05:21;;;;;;;24.85;12.50;;;;;;;;;;5049537;28;20017;-69
2021/09/06 12:07:48;;;;;;;20.23;13.00;;;;;;;;;;5034768;28;20118;-69
2021/09/06 12:10:24;;;;;;;25.98;12.75;;;;;;;;;;5036968;28;20033;-70
2021/09/06 12:12:57;;;;;;;16.98;11.38;;;;;;;;;;5036787;28;20500;-69
2021/09/06 12:15:23;;;;;;;20.00;10.93;;;;;;;;;;5054782;28;20659;-69
2021/09/06 12:17:49;;;;;;;22.63;11.50;;;;;;;;;;5036851;28;20111;-68
2021/09/06 12:20:15;;;;;;;20.50;11.57;;;;;;;;;;5054392;28;20055;-69
2021/09/06 12:22:41;;;;;;;18.58;11.82;;;;;;;;;;5036559;28;20052;-69
2021/09/06 12:25:07;;;;;;;23.08;10.93;;;;;;;;;;5054813;28;20033;-70
2021/09/06 12:27:34;;;;;;;20.42;11.32;;;;;;;;;;5054280;28;20056;-70
2021/09/06 12:30:00;;;;;;;13.35;10.00;;;;;;;;;;5054165;28;20025;-69
2021/09/06 12:32:29;;;;;;;20.08;10.75;;;;;;;;;;5054422;28;20063;-69
2021/09/06 12:35:02;;;;;;;22.15;10.88;;;;;;;;;;5054324;28;20033;-70
2021/09/06 12:37:28;;;;;;;18.00;11.13;;;;;;;;;;5036415;28;20025;-69
2021/09/06 12:39:57;;;;;;;18.42;10.00;;;;;;;;;;5054191;28;20029;-70
2021/09/06 12:42:23;;;;;;;15.88;10.50;;;;;;;;;;5054262;28;20523;-69
2021/09/06 12:44:49;;;;;;;20.63;9.90;;;;;;;;;;5053754;28;20112;-70
2021/09/06 12:47:15;;;;;;;14.73;9.23;;;;;;;;;;5036161;28;20460;-68
2021/09/06 12:49:41;;;;;;;14.52;9.88;;;;;;;;;;5053862;28;20340;-69
2021/09/06 12:52:07;;;;;;;18.80;9.88;;;;;;;;;;5054298;28;20059;-68
2021/09/06 12:54:33;;;;;;;21.08;10.20;;;;;;;;;;5053721;28;20047;-68
2021/09/06 12:56:59;;;;;;;14.98;9.18;;;;;;;;;;5053950;28;20025;-70
2021/09/06 12:59:25;;;;;;;14.65;9.45;;;;;;;;;;5053767;28;20028;-68
2021/09/06 13:01:51;;;;;;;16.27;10.18;;;;;;;;;;5054061;28;20036;-69
2021/09/06 13:04:18;;;;;;;12.85;9.02;;;;;;;;;;5053878;28;20029;-68
2021/09/06 13:06:45;;;;;;;18.95;9.80;;;;;;;;;;5054018;28;20017;-68
2021/09/06 13:09:10;;;;;;;16.52;9.27;;;;;;;;;;5053843;28;20361;-70
2021/09/06 13:11:37;;;;;;;22.60;10.43;;;;;;;;;;5053440;28;20017;-69
2021/09/06 13:14:04;;;;;;;14.88;9.20;;;;;;;;;;5053700;28;20025;-70
2021/09/06 13:16:30;;;;;;;18.27;9.50;;;;;;;;;;5053566;28;20023;-69
2021/09/06 13:18:56;;;;;;;12.82;8.70;;;;;;;;;;5064441;28;20100;-69
2021/09/06 13:21:22;;;;;;;18.42;9.60;;;;;;;;;;5073501;28;20107;-69
2021/09/06 13:23:48;;;;;;;15.95;9.77;;;;;;;;;;5073553;28;20105;-70
2021/09/06 13:26:14;;;;;;;16.17;9.60;;;;;;;;;;5073230;28;20020;-69
2021/09/06 13:28:41;;;;;;;13.32;9.55;;;;;;;;;;5055245;28;20028;-69
2021/09/06 13:31:07;;;;;;;18.20;9.30;;;;;;;;;;5073435;28;20047;-69
2021/09/06 13:33:34;;;;;;;15.77;9.32;;;;;;;;;;5055377;28;20036;-69
2021/09/06 13:36:00;;;;;;;16.45;9.25;;;;;;;;;;5073339;28;20488;-68
2021/09/06 13:38:28;;;;;;;13.23;8.70;;;;;;;;;;5073179;28;20016;-70
2021/09/06 13:40:54;;;;;;;18.48;10.48;;;;;;;;;;5073195;28;20520;-70
2021/09/06 13:43:20;;;;;;;15.23;9.68;;;;;;;;;;5073359;28;20056;-69
2021/09/06 13:45:46;;;;;;;15.75;10.25;;;;;;;;;;5054973;28;20107;-68
2021/09/06 13:48:12;;;;;;;17.42;10.23;;;;;;;;;;5073241;28;20393;-72
2021/09/06 13:50:38;;;;;;;19.05;10.38;;;;;;;;;;5055077;28;20052;-69
2021/09/06 13:53:04;;;;;;;15.95;10.13;;;;;;;;;;5073309;28;20078;-69
2021/09/06 13:55:30;;;;;;;15.50;9.52;;;;;;;;;;5054966;28;20433;-69
2021/09/06 13:57:55;;;;;;;16.67;9.85;;;;;;;;;;5076538;28;20082;-70
2021/09/06 14:00:21;;;;;;;16.30;9.60;;;;;;;;;;5077209;28;20103;-69
2021/09/06 14:02:47;;;;;;;15.93;10.05;;;;;;;;;;5077184;28;20021;-68
2021/09/06 14:05:13;;;;;;;13.70;9.27;;;;;;;;;;5060929;28;20128;-69
2021/09/06 14:07:40;;;;;;;12.63;9.57;;;;;;;;;;5056841;28;20392;-69
2021/09/06 14:10:06;;;;;;;20.23;10.48;;;;;;;;;;5057078;28;20507;-70
2021/09/06 14:12:32;;;;;;;17.70;9.32;;;;;;;;;;5056791;28;20388;-69
2021/09/06 14:14:58;;;;;;;18.05;10.00;;;;;;;;;;5038976;28;20040;-70
2021/09/06 14:17:24;;;;;;;27.85;10.63;;;;;;;;;;5056791;28;20616;-70
2021/09/06 14:19:50;;;;;;;21.73;13.20;;;;;;;;;;5075761;28;20020;-70